createdAt,value
2019-04-21T00:00:58.630Z,11.00
2019-04-21T00:01:56.390Z,11.00
2019-04-21T00:02:55.384Z,11.00
2019-04-21T00:04:02.489Z,10.88
2019-04-21T00:05:16.458Z,10.88
2019-04-21T00:07:16.010Z,10.88
2019-04-21T00:08:27.830Z,10.88
2019-04-21T00:09:18.187Z,10.88
2019-04-21T00:10:13.566Z,10.88
2019-04-21T00:11:18.513Z,10.88
2019-04-21T00:12:13.996Z,10.88
2019-04-21T00:13:12.411Z,10.88
2019-04-21T00:14:05.724Z,10.88
2019-04-21T00:15:06.360Z,10.88
2019-04-21T00:16:00.267Z,10.88
2019-04-21T00:17:02.803Z,10.88
2019-04-21T00:18:00.331Z,10.88
2019-04-21T00:19:01.163Z,10.88
2019-04-21T00:20:05.507Z,10.75
2019-04-21T00:21:08.244Z,10.75
2019-04-21T00:22:07.704Z,10.75
2019-04-21T00:23:13.051Z,10.75
2019-04-21T00:24:05.921Z,10.75
2019-04-21T00:25:11.817Z,10.75
2019-04-21T00:26:04.028Z,10.75
2019-04-21T00:27:14.192Z,10.75
2019-04-21T00:28:17.029Z,10.75
2019-04-21T00:29:16.444Z,10.63
2019-04-21T00:30:17.870Z,10.63
2019-04-21T00:31:12.659Z,10.63
2019-04-21T00:32:11.473Z,10.63
2019-04-21T00:33:04.597Z,10.63
2019-04-21T00:33:55.075Z,10.63
2019-04-21T00:35:02.518Z,10.50
2019-04-21T00:36:00.760Z,10.50
2019-04-21T00:37:07.042Z,10.50
2019-04-21T00:39:15.759Z,10.50
2019-04-21T00:40:17.952Z,10.38
2019-04-21T00:42:16.847Z,10.38
2019-04-21T00:43:08.962Z,10.38
2019-04-21T00:44:10.968Z,10.38
2019-04-21T00:45:07.917Z,10.25
2019-04-21T00:46:04.844Z,10.25
2019-04-21T00:47:08.514Z,10.25
2019-04-21T00:48:20.634Z,10.25
2019-04-21T00:49:10.893Z,10.13
2019-04-21T00:50:19.051Z,10.13
2019-04-21T00:51:16.873Z,10.13
2019-04-21T00:52:28.870Z,10.13
2019-04-21T00:53:05.541Z,10.13
2019-04-21T00:54:13.321Z,10.13
2019-04-21T00:55:30.919Z,10.13
2019-04-21T00:56:09.002Z,10.13
2019-04-21T00:57:17.984Z,10.13
2019-04-21T00:58:13.097Z,10.13
2019-04-21T00:59:20.033Z,10.13
2019-04-21T01:00:18.793Z,10.13
2019-04-21T01:01:16.158Z,10.13
2019-04-21T01:02:09.127Z,10.13
2019-04-21T01:03:20.633Z,10.13
2019-04-21T01:04:09.713Z,10.00
2019-04-21T01:05:11.249Z,10.13
2019-04-21T01:06:21.247Z,10.00
2019-04-21T01:07:12.433Z,10.00
2019-04-21T01:08:09.965Z,10.00
2019-04-21T01:09:16.510Z,10.00
2019-04-21T01:10:05.218Z,10.00
2019-04-21T01:11:18.883Z,10.00
2019-04-21T01:12:12.618Z,10.00
2019-04-21T01:13:23.126Z,10.00
2019-04-21T01:14:27.917Z,10.00
2019-04-21T01:15:16.402Z,10.00
2019-04-21T01:16:13.812Z,10.00
2019-04-21T01:17:18.678Z,10.00
2019-04-21T01:18:16.899Z,10.00
2019-04-21T01:19:17.358Z,9.88
2019-04-21T01:20:08.184Z,9.88
2019-04-21T01:20:55.203Z,9.88
2019-04-21T01:21:55.203Z,9.88
2019-04-21T01:22:55.864Z,9.88
2019-04-21T01:24:04.864Z,9.88
2019-04-21T01:25:05.622Z,9.88
2019-04-21T01:26:06.586Z,9.88
2019-04-21T01:27:04.750Z,9.88
2019-04-21T01:28:15.095Z,9.88
2019-04-21T01:29:06.672Z,9.88
2019-04-21T01:30:16.494Z,9.88
2019-04-21T01:31:13.685Z,9.88
2019-04-21T01:32:16.069Z,9.75
2019-04-21T01:33:12.431Z,9.75
2019-04-21T01:34:15.098Z,9.75
2019-04-21T01:35:15.064Z,9.75
2019-04-21T01:36:14.253Z,9.75
2019-04-21T01:37:12.783Z,9.75
2019-04-21T01:39:19.721Z,9.63
2019-04-21T01:40:26.839Z,9.63
2019-04-21T01:41:21.005Z,9.63
2019-04-21T01:42:19.083Z,9.63
2019-04-21T01:43:15.128Z,9.63
2019-04-21T01:45:11.393Z,9.63
2019-04-21T01:46:10.624Z,9.63
2019-04-21T01:47:11.728Z,9.63
2019-04-21T01:48:13.689Z,9.50
2019-04-21T01:49:10.484Z,9.50
2019-04-21T01:50:04.337Z,9.50
2019-04-21T01:51:11.530Z,9.50
2019-04-21T01:52:17.848Z,9.50
2019-04-21T01:53:22.445Z,9.50
2019-04-21T01:54:14.650Z,9.38
2019-04-21T01:55:12.319Z,9.38
2019-04-21T01:56:18.425Z,9.38
2019-04-21T01:57:12.983Z,9.38
2019-04-21T01:58:05.977Z,9.38
2019-04-21T01:59:03.490Z,9.38
2019-04-21T02:00:04.927Z,9.38
2019-04-21T02:01:08.670Z,9.38
2019-04-21T02:02:17.192Z,9.38
2019-04-21T02:03:37.481Z,9.38
2019-04-21T02:04:14.106Z,9.38
2019-04-21T02:05:17.517Z,9.38
2019-04-21T02:06:11.107Z,9.38
2019-04-21T02:07:15.051Z,9.38
2019-04-21T02:09:10.067Z,9.25
2019-04-21T02:10:11.197Z,9.25
2019-04-21T02:11:17.536Z,9.25
2019-04-21T02:12:13.444Z,9.25
2019-04-21T02:13:15.379Z,9.25
2019-04-21T02:14:17.506Z,9.25
2019-04-21T02:15:14.303Z,9.25
2019-04-21T02:17:20.360Z,9.25
2019-04-21T02:18:16.990Z,9.25
2019-04-21T02:19:12.542Z,9.25
2019-04-21T02:20:09.396Z,9.25
2019-04-21T02:21:04.401Z,9.25
2019-04-21T02:22:10.735Z,9.25
2019-04-21T02:23:26.405Z,9.25
2019-04-21T02:24:27.337Z,9.25
2019-04-21T02:25:08.319Z,9.25
2019-04-21T02:26:21.277Z,9.25
2019-04-21T02:27:19.095Z,9.25
2019-04-21T02:28:22.449Z,9.25
2019-04-21T02:29:18.875Z,9.13
2019-04-21T02:30:32.959Z,9.13
2019-04-21T02:31:29.043Z,9.13
2019-04-21T02:32:33.445Z,9.13
2019-04-21T02:33:27.869Z,9.13
2019-04-21T02:34:27.430Z,9.13
2019-04-21T02:35:33.417Z,9.13
2019-04-21T02:36:27.480Z,9.13
2019-04-21T02:37:36.713Z,9.13
2019-04-21T02:38:33.208Z,9.13
2019-04-21T02:39:35.524Z,9.13
2019-04-21T02:41:18.742Z,9.00
2019-04-21T02:43:22.906Z,9.00
2019-04-21T02:44:30.205Z,9.00
2019-04-21T02:45:20.848Z,9.00
2019-04-21T02:47:36.978Z,9.00
2019-04-21T02:48:28.592Z,8.88
2019-04-21T02:49:35.005Z,8.88
2019-04-21T02:50:22.420Z,8.88
2019-04-21T02:51:28.003Z,8.88
2019-04-21T02:52:31.010Z,8.88
2019-04-21T02:53:31.792Z,8.75
2019-04-21T02:55:22.203Z,8.75
2019-04-21T02:57:23.070Z,8.63
2019-04-21T02:58:34.644Z,8.63
2019-04-21T02:59:23.651Z,8.63
2019-04-21T03:00:19.147Z,8.63
2019-04-21T03:01:32.098Z,8.50
2019-04-21T03:02:16.402Z,8.50
2019-04-21T03:03:29.596Z,8.50
2019-04-21T03:04:30.202Z,8.50
2019-04-21T03:05:29.267Z,8.50
2019-04-21T03:06:16.801Z,8.50
2019-04-21T03:07:19.180Z,8.50
2019-04-21T03:09:19.679Z,8.38
2019-04-21T03:12:22.172Z,8.38
2019-04-21T03:13:29.728Z,8.38
2019-04-21T03:17:29.584Z,8.13
2019-04-21T03:20:25.687Z,8.13
2019-04-21T03:21:22.127Z,8.13
2019-04-21T03:23:31.856Z,8.00
2019-04-21T03:24:29.666Z,8.00
2019-04-21T03:25:37.168Z,8.00
2019-04-21T03:26:20.231Z,7.87
2019-04-21T03:27:17.283Z,7.87
2019-04-21T03:29:28.171Z,7.75
2019-04-21T03:30:45.167Z,7.75
2019-04-21T03:32:28.437Z,7.75
2019-04-21T03:34:12.215Z,7.75
2019-04-21T03:36:02.190Z,7.62
2019-04-21T03:36:47.789Z,7.62
2019-04-21T03:37:30.842Z,7.62
2019-04-21T03:38:29.290Z,7.62
2019-04-21T03:39:18.368Z,7.50
2019-04-21T03:40:22.185Z,7.50
2019-04-21T03:44:26.736Z,7.37
2019-04-21T03:45:33.043Z,7.37
2019-04-21T03:46:15.859Z,7.37
2019-04-21T03:47:32.407Z,7.37
2019-04-21T03:48:27.171Z,7.37
2019-04-21T03:49:28.875Z,7.37
2019-04-21T03:51:20.988Z,7.25
2019-04-21T03:52:37.034Z,7.25
2019-04-21T03:53:28.298Z,7.25
2019-04-21T03:54:20.236Z,7.25
2019-04-21T03:55:51.456Z,7.25
2019-04-21T03:56:44.419Z,7.25
2019-04-21T03:57:38.791Z,7.25
2019-04-21T03:59:12.272Z,7.12
2019-04-21T04:01:19.765Z,7.12
2019-04-21T04:03:49.225Z,7.12
2019-04-21T04:05:36.287Z,7.12
2019-04-21T04:06:25.753Z,7.00
2019-04-21T04:08:23.062Z,7.00
2019-04-21T04:10:14.002Z,7.00
2019-04-21T04:11:24.828Z,7.00
2019-04-21T04:13:15.692Z,7.00
2019-04-21T04:14:31.029Z,7.00
2019-04-21T04:15:31.153Z,7.00
2019-04-21T04:18:42.761Z,7.00
2019-04-21T04:20:28.311Z,7.00
2019-04-21T04:22:31.452Z,7.00
2019-04-21T04:24:30.201Z,7.12
2019-04-21T04:26:13.075Z,7.12
2019-04-21T04:27:49.212Z,7.12
2019-04-21T04:28:28.150Z,7.12
2019-04-21T04:31:33.418Z,7.12
2019-04-21T04:36:33.931Z,7.25
2019-04-21T04:39:43.033Z,7.25
2019-04-21T04:41:34.985Z,7.37
2019-04-21T04:42:35.047Z,7.37
2019-04-21T04:43:25.057Z,7.37
2019-04-21T04:44:42.286Z,7.50
2019-04-21T04:45:30.717Z,7.50
2019-04-21T04:46:28.562Z,7.50
2019-04-21T04:47:20.478Z,7.62
2019-04-21T04:48:11.471Z,7.62
2019-04-21T04:49:40.111Z,7.62
2019-04-21T04:50:35.922Z,7.62
2019-04-21T04:51:36.491Z,7.75
2019-04-21T04:53:32.827Z,7.87
2019-04-21T04:55:26.313Z,7.87
2019-04-21T04:56:31.113Z,8.00
2019-04-21T04:57:34.255Z,8.00
2019-04-21T04:58:29.600Z,8.00
2019-04-21T04:59:33.696Z,8.13
2019-04-21T05:00:18.129Z,8.13
2019-04-21T05:01:32.710Z,8.25
2019-04-21T05:02:20.358Z,8.25
2019-04-21T05:03:15.592Z,8.25
2019-04-21T05:04:16.341Z,8.38
2019-04-21T05:07:33.727Z,8.50
2019-04-21T05:08:36.449Z,8.63
2019-04-21T05:09:21.620Z,8.63
2019-04-21T05:10:22.323Z,8.75
2019-04-21T05:12:16.329Z,8.88
2019-04-21T05:13:29.263Z,8.88
2019-04-21T05:14:25.153Z,9.00
2019-04-21T05:15:19.305Z,9.00
2019-04-21T05:16:36.375Z,9.13
2019-04-21T05:17:31.153Z,9.13
2019-04-21T05:18:24.420Z,9.25
2019-04-21T05:19:20.916Z,9.25
2019-04-21T05:20:23.764Z,9.38
2019-04-21T05:21:30.203Z,9.38
2019-04-21T05:22:21.920Z,9.50
2019-04-21T05:23:15.222Z,9.50
2019-04-21T05:24:13.664Z,9.50
2019-04-21T05:25:11.005Z,9.63
2019-04-21T05:26:09.871Z,9.63
2019-04-21T05:27:12.645Z,9.63
2019-04-21T05:28:08.944Z,9.75
2019-04-21T05:29:05.274Z,9.75
2019-04-21T05:30:17.812Z,9.75
2019-04-21T05:32:14.077Z,9.88
2019-04-21T05:33:20.497Z,9.88
2019-04-21T05:34:18.987Z,10.00
2019-04-21T05:35:08.218Z,10.00
2019-04-21T05:36:16.873Z,10.13
2019-04-21T05:37:14.265Z,10.13
2019-04-21T05:38:12.803Z,10.25
2019-04-21T05:39:10.773Z,10.38
2019-04-21T05:40:10.600Z,10.38
2019-04-21T05:41:06.573Z,10.50
2019-04-21T05:42:07.828Z,10.63
2019-04-21T05:44:19.355Z,10.75
2019-04-21T05:45:21.102Z,10.75
2019-04-21T05:46:21.353Z,10.88
2019-04-21T05:49:09.369Z,11.00
2019-04-21T05:50:11.612Z,11.00
2019-04-21T05:51:10.639Z,11.12
2019-04-21T05:52:03.793Z,11.12
2019-04-21T05:53:24.293Z,11.25
2019-04-21T05:54:22.915Z,11.25
2019-04-21T05:55:18.074Z,11.38
2019-04-21T05:56:16.236Z,11.38
2019-04-21T05:57:10.234Z,11.50
2019-04-21T05:58:11.603Z,11.50
2019-04-21T05:59:12.082Z,11.63
2019-04-21T06:00:20.057Z,11.63
2019-04-21T06:01:27.580Z,11.75
2019-04-21T06:02:23.948Z,11.88
2019-04-21T06:03:19.736Z,12.00
2019-04-21T06:04:26.225Z,12.13
2019-04-21T06:05:28.583Z,12.25
2019-04-21T06:06:22.008Z,12.25
2019-04-21T06:07:21.625Z,12.37
2019-04-21T06:08:19.364Z,12.50
2019-04-21T06:09:14.609Z,12.63
2019-04-21T06:10:14.853Z,12.88
2019-04-21T06:11:20.978Z,13.13
2019-04-21T06:12:18.289Z,13.38
2019-04-21T06:13:13.448Z,13.62
2019-04-21T06:16:13.876Z,14.50
2019-04-21T06:17:25.334Z,14.75
2019-04-21T06:18:13.015Z,15.00
2019-04-21T06:19:29.390Z,15.25
2019-04-21T06:20:17.149Z,15.38
2019-04-21T06:21:16.403Z,15.50
2019-04-21T06:22:16.617Z,15.50
2019-04-21T06:23:12.071Z,15.63
2019-04-21T06:24:18.837Z,15.63
2019-04-21T06:25:40.986Z,15.75
2019-04-21T06:26:44.822Z,15.88
2019-04-21T06:27:24.777Z,16.00
2019-04-21T06:28:26.003Z,16.12
2019-04-21T06:29:18.459Z,16.37
2019-04-21T06:30:10.384Z,16.62
2019-04-21T06:31:21.602Z,16.75
2019-04-21T06:32:30.457Z,16.75
2019-04-21T06:33:15.404Z,16.75
2019-04-21T06:34:17.266Z,16.87
2019-04-21T06:36:24.159Z,17.37
2019-04-21T06:38:13.138Z,17.75
2019-04-21T06:39:17.819Z,17.87
2019-04-21T06:40:23.037Z,18.12
2019-04-21T06:41:21.354Z,18.25
2019-04-21T06:42:16.729Z,18.37
2019-04-21T06:43:25.940Z,18.50
2019-04-21T06:44:13.804Z,18.62
2019-04-21T06:45:20.440Z,18.75
2019-04-21T06:46:25.610Z,18.87
2019-04-21T06:47:23.084Z,19.00
2019-04-21T06:48:18.461Z,19.12
2019-04-21T06:49:13.349Z,19.25
2019-04-21T06:51:23.693Z,19.50
2019-04-21T06:52:41.890Z,19.50
2019-04-21T06:54:14.531Z,19.75
2019-04-21T06:56:25.463Z,20.00
2019-04-21T06:57:18.696Z,20.25
2019-04-21T06:58:18.342Z,20.37
2019-04-21T07:00:15.026Z,20.50
2019-04-21T07:01:18.918Z,20.62
2019-04-21T07:03:20.610Z,21.00
2019-04-21T07:04:25.194Z,21.12
2019-04-21T07:07:14.138Z,21.62
2019-04-21T07:08:29.383Z,21.75
2019-04-21T07:09:22.326Z,21.87
2019-04-21T07:11:15.054Z,22.00
2019-04-21T07:12:13.894Z,22.25
2019-04-21T07:13:08.263Z,22.50
2019-04-21T07:14:30.087Z,22.62
2019-04-21T07:15:19.188Z,22.62
2019-04-21T07:16:13.829Z,22.75
2019-04-21T07:17:20.303Z,22.87
2019-04-21T07:18:19.459Z,22.87
2019-04-21T07:19:22.113Z,23.00
2019-04-21T07:20:18.796Z,22.87
2019-04-21T07:21:14.327Z,22.62
2019-04-21T07:22:15.813Z,22.62
2019-04-21T07:24:22.637Z,22.75
2019-04-21T07:25:13.710Z,22.87
2019-04-21T07:26:22.239Z,22.87
2019-04-21T07:28:19.037Z,23.00
2019-04-21T07:30:13.143Z,23.25
2019-04-21T07:31:22.802Z,23.50
2019-04-21T07:32:19.134Z,23.62
2019-04-21T07:33:46.229Z,23.62
2019-04-21T07:34:25.133Z,23.62
2019-04-21T07:36:11.699Z,23.75
2019-04-21T07:37:13.906Z,23.87
2019-04-21T07:38:17.997Z,23.87
2019-04-21T07:39:15.284Z,24.00
2019-04-21T07:40:09.438Z,24.00
2019-04-21T07:41:09.199Z,24.12
2019-04-21T07:42:13.340Z,24.25
2019-04-21T07:43:10.765Z,24.25
2019-04-21T07:44:08.733Z,24.25
2019-04-21T07:45:13.028Z,24.37
2019-04-21T07:46:10.159Z,24.50
2019-04-21T07:47:15.773Z,24.63
2019-04-21T07:49:12.768Z,24.75
2019-04-21T07:50:08.756Z,24.75
2019-04-21T07:51:20.697Z,24.75
2019-04-21T07:52:18.729Z,24.75
2019-04-21T07:53:23.918Z,24.87
2019-04-21T07:54:13.836Z,25.12
2019-04-21T07:56:06.277Z,25.12
2019-04-21T07:57:06.688Z,25.12
2019-04-21T07:58:14.592Z,25.25
2019-04-21T07:59:12.734Z,25.25
2019-04-21T08:00:20.607Z,25.25
2019-04-21T08:01:18.252Z,25.25
2019-04-21T08:02:16.982Z,25.25
2019-04-21T08:03:13.842Z,25.25
2019-04-21T08:04:24.283Z,25.37
2019-04-21T08:05:17.313Z,25.50
2019-04-21T08:06:22.348Z,25.75
2019-04-21T08:08:11.379Z,26.12
2019-04-21T08:09:12.577Z,26.12
2019-04-21T08:10:16.031Z,26.12
2019-04-21T08:11:12.229Z,26.12
2019-04-21T08:12:09.539Z,26.25
2019-04-21T08:13:22.041Z,26.25
2019-04-21T08:14:17.000Z,26.37
2019-04-21T08:15:15.671Z,26.50
2019-04-21T08:16:25.665Z,26.62
2019-04-21T08:17:10.997Z,26.75
2019-04-21T08:18:11.771Z,26.87
2019-04-21T08:19:15.654Z,27.00
2019-04-21T08:20:13.951Z,27.25
2019-04-21T08:21:19.531Z,27.25
2019-04-21T08:22:15.703Z,27.25
2019-04-21T08:24:14.488Z,27.25
2019-04-21T08:25:14.899Z,27.25
2019-04-21T08:26:16.611Z,27.25
2019-04-21T08:27:18.872Z,27.50
2019-04-21T08:28:08.948Z,27.62
2019-04-21T08:29:21.204Z,27.75
2019-04-21T08:30:21.517Z,27.75
2019-04-21T08:31:23.633Z,27.87
2019-04-21T08:32:14.496Z,28.00
2019-04-21T08:33:26.262Z,28.25
2019-04-21T08:34:17.829Z,28.38
2019-04-21T08:36:28.183Z,28.62
2019-04-21T08:37:18.235Z,28.87
2019-04-21T08:39:13.399Z,29.12
2019-04-21T08:40:21.363Z,29.25
2019-04-21T08:41:13.674Z,29.12
2019-04-21T08:42:19.816Z,29.12
2019-04-21T08:43:21.148Z,29.00
2019-04-21T08:44:20.566Z,29.00
2019-04-21T08:46:15.223Z,29.00
2019-04-21T08:47:20.318Z,29.00
2019-04-21T08:48:12.428Z,28.75
2019-04-21T08:49:15.810Z,28.62
2019-04-21T08:51:27.590Z,28.50
2019-04-21T08:52:21.260Z,28.62
2019-04-21T08:53:13.937Z,28.87
2019-04-21T08:54:18.378Z,29.12
2019-04-21T08:55:20.298Z,29.25
2019-04-21T08:56:16.425Z,29.37
2019-04-21T08:57:20.105Z,29.50
2019-04-21T08:58:15.445Z,29.75
2019-04-21T08:59:19.229Z,29.87
2019-04-21T09:00:19.797Z,29.87
2019-04-21T09:01:17.583Z,30.00
2019-04-21T09:03:17.761Z,30.25
2019-04-21T09:04:13.298Z,30.50
2019-04-21T09:05:15.844Z,30.50
2019-04-21T09:06:13.839Z,30.62
2019-04-21T09:07:16.209Z,30.75
2019-04-21T09:08:13.775Z,30.88
2019-04-21T09:09:20.024Z,30.88
2019-04-21T09:10:09.471Z,30.75
2019-04-21T09:11:12.831Z,30.88
2019-04-21T09:12:17.610Z,30.75
2019-04-21T09:13:15.275Z,30.62
2019-04-21T09:14:13.724Z,30.75
2019-04-21T09:15:13.979Z,30.88
2019-04-21T09:16:09.723Z,30.88
2019-04-21T09:17:12.102Z,31.12
2019-04-21T09:18:11.473Z,30.88
2019-04-21T09:19:20.167Z,30.75
2019-04-21T09:20:16.970Z,30.50
2019-04-21T09:21:13.558Z,30.50
2019-04-21T09:22:12.835Z,30.25
2019-04-21T09:23:15.432Z,30.37
2019-04-21T09:24:16.708Z,30.62
2019-04-21T09:25:21.164Z,30.75
2019-04-21T09:26:13.846Z,30.75
2019-04-21T09:27:10.179Z,31.00
2019-04-21T09:28:12.618Z,31.00
2019-04-21T09:29:05.661Z,30.88
2019-04-21T09:30:00.309Z,30.88
2019-04-21T09:30:58.477Z,30.88
2019-04-21T09:31:59.141Z,30.75
2019-04-21T09:32:56.860Z,30.75
2019-04-21T09:34:00.306Z,30.88
2019-04-21T09:34:55.800Z,30.88
2019-04-21T09:35:59.662Z,31.00
2019-04-21T09:37:12.744Z,31.12
2019-04-21T09:38:02.181Z,31.12
2019-04-21T09:39:00.081Z,31.25
2019-04-21T09:39:57.407Z,31.25
2019-04-21T09:40:56.207Z,31.25
2019-04-21T09:41:57.691Z,31.12
2019-04-21T09:42:59.282Z,31.00
2019-04-21T09:43:57.225Z,31.00
2019-04-21T09:45:00.878Z,31.12
2019-04-21T09:45:56.679Z,30.88
2019-04-21T09:46:58.532Z,30.50
2019-04-21T09:48:02.657Z,30.50
2019-04-21T09:48:59.261Z,30.62
2019-04-21T09:49:56.298Z,30.88
2019-04-21T09:50:55.285Z,31.00
2019-04-21T09:51:55.671Z,31.00
2019-04-21T09:52:59.761Z,31.00
2019-04-21T09:54:00.933Z,31.12
2019-04-21T09:55:04.178Z,31.00
2019-04-21T09:56:01.060Z,30.88
2019-04-21T09:57:00.275Z,30.75
2019-04-21T09:57:57.586Z,30.75
2019-04-21T09:59:07.253Z,31.00
2019-04-21T10:00:04.120Z,31.00
2019-04-21T10:01:06.241Z,31.00
2019-04-21T10:02:06.480Z,31.00
2019-04-21T10:03:02.919Z,30.88
2019-04-21T10:03:59.777Z,30.75
2019-04-21T10:04:57.289Z,30.75
2019-04-21T10:05:56.278Z,30.75
2019-04-21T10:06:56.266Z,30.88
2019-04-21T10:07:55.817Z,30.88
2019-04-21T10:08:58.331Z,31.00
2019-04-21T10:09:55.719Z,30.88
2019-04-21T10:10:56.903Z,30.62
2019-04-21T10:11:57.029Z,30.50
2019-04-21T10:12:56.287Z,30.37
2019-04-21T10:13:55.757Z,30.37
2019-04-21T10:14:55.298Z,30.25
2019-04-21T10:15:56.341Z,30.12
2019-04-21T10:16:58.098Z,30.25
2019-04-21T10:17:56.196Z,30.25
2019-04-21T10:18:56.731Z,30.37
2019-04-21T10:19:55.189Z,30.50
2019-04-21T10:20:56.951Z,30.62
2019-04-21T10:21:56.555Z,30.62
2019-04-21T10:22:55.620Z,30.75
2019-04-21T10:23:55.731Z,30.75
2019-04-21T10:24:56.394Z,30.88
2019-04-21T10:25:56.715Z,31.12
2019-04-21T10:26:55.657Z,31.00
2019-04-21T10:27:56.971Z,31.00
2019-04-21T10:28:58.693Z,31.00
2019-04-21T10:29:59.047Z,31.12
2019-04-21T10:30:56.490Z,31.12
2019-04-21T10:31:55.680Z,31.12
2019-04-21T10:32:56.523Z,31.00
2019-04-21T10:33:55.821Z,30.75
2019-04-21T10:34:55.503Z,30.75
2019-04-21T10:35:56.841Z,30.62
2019-04-21T10:36:55.722Z,30.62
2019-04-21T10:38:06.783Z,30.50
2019-04-21T10:38:57.110Z,30.62
2019-04-21T10:39:55.842Z,30.75
2019-04-21T10:40:57.030Z,30.88
2019-04-21T10:41:55.749Z,30.88
2019-04-21T10:42:58.324Z,31.00
2019-04-21T10:43:55.676Z,31.12
2019-04-21T10:44:56.877Z,31.12
2019-04-21T10:45:56.977Z,31.25
2019-04-21T10:46:56.029Z,31.25
2019-04-21T10:47:56.830Z,31.50
2019-04-21T10:48:56.798Z,31.62
2019-04-21T10:49:55.808Z,31.75
2019-04-21T10:50:55.417Z,31.87
2019-04-21T10:51:55.618Z,31.75
2019-04-21T10:52:55.519Z,31.75
2019-04-21T10:53:56.055Z,31.62
2019-04-21T10:55:15.620Z,31.62
2019-04-21T10:56:06.123Z,31.75
2019-04-21T10:56:56.571Z,31.87
2019-04-21T10:57:55.956Z,31.75
2019-04-21T10:58:56.210Z,31.62
2019-04-21T10:59:57.630Z,31.62
2019-04-21T11:00:55.807Z,31.87
2019-04-21T11:01:56.811Z,31.87
2019-04-21T11:02:56.868Z,31.87
2019-04-21T11:03:55.812Z,32.00
2019-04-21T11:04:56.702Z,32.00
2019-04-21T11:05:56.707Z,32.13
2019-04-21T11:06:59.441Z,32.13
2019-04-21T11:08:56.104Z,32.50
2019-04-21T11:09:56.099Z,32.75
2019-04-21T11:10:56.033Z,32.63
2019-04-21T11:11:55.868Z,32.88
2019-04-21T11:12:56.828Z,33.13
2019-04-21T11:13:56.663Z,33.25
2019-04-21T11:14:56.813Z,33.13
2019-04-21T11:15:55.390Z,33.13
2019-04-21T11:16:56.521Z,33.13
2019-04-21T11:17:56.005Z,33.25
2019-04-21T11:18:56.019Z,33.38
2019-04-21T11:19:57.031Z,33.25
2019-04-21T11:20:55.835Z,33.38
2019-04-21T11:21:56.849Z,33.25
2019-04-21T11:22:57.445Z,33.38
2019-04-21T11:23:56.540Z,33.50
2019-04-21T11:24:56.686Z,33.50
2019-04-21T11:25:55.790Z,33.50
2019-04-21T11:26:55.936Z,33.50
2019-04-21T11:27:56.012Z,33.50
2019-04-21T11:28:56.730Z,33.63
2019-04-21T11:29:55.778Z,33.63
2019-04-21T11:30:54.880Z,33.63
2019-04-21T11:31:56.903Z,33.50
2019-04-21T11:32:57.116Z,33.50
2019-04-21T11:33:57.452Z,33.25
2019-04-21T11:34:56.949Z,33.13
2019-04-21T11:35:57.306Z,33.25
2019-04-21T11:36:56.333Z,33.50
2019-04-21T11:38:04.630Z,33.75
2019-04-21T11:39:09.457Z,34.00
2019-04-21T11:40:00.160Z,34.25
2019-04-21T11:40:56.004Z,34.38
2019-04-21T11:41:57.448Z,34.13
2019-04-21T11:42:55.935Z,33.88
2019-04-21T11:43:57.104Z,33.63
2019-04-21T11:44:55.908Z,33.50
2019-04-21T11:45:55.823Z,33.63
2019-04-21T11:46:56.398Z,33.75
2019-04-21T11:47:56.438Z,33.75
2019-04-21T11:48:55.444Z,34.00
2019-04-21T11:49:56.997Z,34.13
2019-04-21T11:50:57.133Z,34.13
2019-04-21T11:51:56.549Z,34.25
2019-04-21T11:52:56.877Z,34.50
2019-04-21T11:53:56.930Z,34.63
2019-04-21T11:54:56.095Z,34.75
2019-04-21T11:55:57.006Z,34.88
2019-04-21T11:56:56.947Z,34.88
2019-04-21T11:57:56.454Z,35.00
2019-04-21T11:58:55.798Z,35.13
2019-04-21T11:59:55.642Z,35.25
2019-04-21T12:00:55.930Z,35.38
2019-04-21T12:01:57.258Z,35.38
2019-04-21T12:02:55.621Z,35.38
2019-04-21T12:03:55.734Z,35.25
2019-04-21T12:04:55.331Z,35.25
2019-04-21T12:05:55.747Z,35.00
2019-04-21T12:06:56.005Z,34.75
2019-04-21T12:07:58.388Z,34.50
2019-04-21T12:08:59.344Z,34.00
2019-04-21T12:09:55.579Z,33.50
2019-04-21T12:10:55.782Z,33.25
2019-04-21T12:11:57.025Z,32.88
2019-04-21T12:12:55.690Z,32.88
2019-04-21T12:13:56.246Z,33.00
2019-04-21T12:14:59.826Z,33.13
2019-04-21T12:15:57.125Z,33.38
2019-04-21T12:16:57.092Z,33.50
2019-04-21T12:17:56.451Z,33.75
2019-04-21T12:18:56.786Z,34.00
2019-04-21T12:19:56.937Z,34.25
2019-04-21T12:20:55.860Z,34.38
2019-04-21T12:22:05.361Z,34.50
2019-04-21T12:22:56.994Z,34.75
2019-04-21T12:23:56.521Z,34.75
2019-04-21T12:24:57.420Z,34.75
2019-04-21T12:25:56.952Z,34.75
2019-04-21T12:26:56.130Z,34.75
2019-04-21T12:27:56.174Z,34.75
2019-04-21T12:28:56.129Z,34.50
2019-04-21T12:29:55.946Z,34.38
2019-04-21T12:30:56.065Z,34.38
2019-04-21T12:31:57.239Z,34.00
2019-04-21T12:32:56.193Z,33.75
2019-04-21T12:33:56.174Z,33.63
2019-04-21T12:34:57.708Z,33.50
2019-04-21T12:35:56.107Z,33.25
2019-04-21T12:36:56.947Z,33.38
2019-04-21T12:37:56.413Z,33.50
2019-04-21T12:38:59.725Z,33.63
2019-04-21T12:39:56.857Z,33.75
2019-04-21T12:40:56.925Z,34.00
2019-04-21T12:41:56.420Z,34.13
2019-04-21T12:42:56.811Z,34.25
2019-04-21T12:43:56.960Z,34.25
2019-04-21T12:44:57.133Z,34.13
2019-04-21T12:45:55.951Z,33.88
2019-04-21T12:46:56.129Z,33.50
2019-04-21T12:47:55.969Z,33.00
2019-04-21T12:48:55.966Z,32.75
2019-04-21T12:49:56.994Z,32.63
2019-04-21T12:50:57.464Z,32.63
2019-04-21T12:51:55.989Z,32.50
2019-04-21T12:52:56.161Z,32.38
2019-04-21T12:53:57.467Z,32.13
2019-04-21T12:54:56.068Z,32.00
2019-04-21T12:55:57.878Z,31.87
2019-04-21T12:56:56.123Z,31.75
2019-04-21T12:57:57.231Z,31.75
2019-04-21T12:58:57.539Z,31.62
2019-04-21T12:59:57.048Z,31.75
2019-04-21T13:00:56.726Z,31.75
2019-04-21T13:01:56.884Z,31.87
2019-04-21T13:02:56.159Z,31.87
2019-04-21T13:03:55.872Z,31.87
2019-04-21T13:04:55.979Z,32.00
2019-04-21T13:05:56.083Z,32.13
2019-04-21T13:06:55.793Z,32.00
2019-04-21T13:07:55.587Z,32.00
2019-04-21T13:09:02.994Z,32.13
2019-04-21T13:09:58.370Z,32.25
2019-04-21T13:10:56.256Z,32.38
2019-04-21T13:11:56.972Z,32.63
2019-04-21T13:12:56.433Z,32.88
2019-04-21T13:13:56.238Z,33.00
2019-04-21T13:14:57.425Z,33.13
2019-04-21T13:15:57.592Z,33.25
2019-04-21T13:16:57.343Z,33.25
2019-04-21T13:17:56.321Z,33.25
2019-04-21T13:18:57.513Z,33.00
2019-04-21T13:19:56.981Z,32.75
2019-04-21T13:20:57.847Z,32.50
2019-04-21T13:21:56.137Z,32.25
2019-04-21T13:22:56.106Z,32.13
2019-04-21T13:23:56.807Z,32.00
2019-04-21T13:24:56.014Z,32.00
2019-04-21T13:25:56.103Z,31.75
2019-04-21T13:26:58.508Z,31.75
2019-04-21T13:27:54.797Z,31.87
2019-04-21T13:28:58.409Z,31.62
2019-04-21T13:29:56.590Z,31.62
2019-04-21T13:30:56.375Z,31.75
2019-04-21T13:31:56.286Z,31.75
2019-04-21T13:32:58.533Z,31.75
2019-04-21T13:33:55.787Z,31.87
2019-04-21T13:34:57.037Z,32.00
2019-04-21T13:35:57.226Z,32.00
2019-04-21T13:36:57.244Z,32.13
2019-04-21T13:37:56.355Z,32.38
2019-04-21T13:39:14.599Z,32.38
2019-04-21T13:40:21.080Z,32.38
2019-04-21T13:41:12.260Z,32.25
2019-04-21T13:42:06.624Z,31.87
2019-04-21T13:42:58.858Z,31.62
2019-04-21T13:43:56.963Z,31.37
2019-04-21T13:44:57.985Z,31.25
2019-04-21T13:45:57.902Z,31.25
2019-04-21T13:46:56.557Z,31.25
2019-04-21T13:47:56.720Z,31.37
2019-04-21T13:48:56.089Z,31.37
2019-04-21T13:49:57.880Z,31.37
2019-04-21T13:50:55.493Z,31.25
2019-04-21T13:51:56.190Z,31.25
2019-04-21T13:52:56.558Z,31.25
2019-04-21T13:53:55.616Z,31.37
2019-04-21T13:54:56.136Z,31.37
2019-04-21T13:55:56.650Z,31.25
2019-04-21T13:56:56.536Z,30.88
2019-04-21T13:57:56.793Z,30.62
2019-04-21T13:58:56.039Z,30.50
2019-04-21T13:59:57.191Z,30.25
2019-04-21T14:00:56.145Z,30.00
2019-04-21T14:01:55.994Z,29.75
2019-04-21T14:02:56.510Z,29.63
2019-04-21T14:03:55.896Z,29.37
2019-04-21T14:04:56.204Z,29.00
2019-04-21T14:05:56.362Z,28.75
2019-04-21T14:06:56.416Z,28.50
2019-04-21T14:07:57.907Z,28.25
2019-04-21T14:08:56.998Z,28.12
2019-04-21T14:10:00.777Z,28.00
2019-04-21T14:10:55.845Z,27.87
2019-04-21T14:11:59.060Z,27.87
2019-04-21T14:12:56.316Z,27.75
2019-04-21T14:13:56.481Z,27.62
2019-04-21T14:14:56.587Z,27.50
2019-04-21T14:15:55.954Z,27.37
2019-04-21T14:16:56.234Z,27.37
2019-04-21T14:17:56.905Z,27.37
2019-04-21T14:18:57.203Z,27.25
2019-04-21T14:19:57.244Z,27.13
2019-04-21T14:20:57.412Z,27.00
2019-04-21T14:21:57.107Z,27.00
2019-04-21T14:23:08.104Z,26.87
2019-04-21T14:23:57.756Z,26.75
2019-04-21T14:24:56.334Z,26.75